Time;durP1;ratioP1;P1;durP2;ratioP2;P2;SDS_P1;SDS_P2;PMS_P1;PMS_P2;Temp;Humidity;BMP_temperature;BMP_pressure;BME280_temperature;BME280_humidity;BME280_pressure;Samples;Min_cycle;Max_cycle;Signal;HPM_P1;HPM_P2
2022/06/28 00:02:26;;;;;;;11.00;4.13;;;;;;;28.75;32.94;96779.81;5114252;28;20024;-34
2022/06/28 00:04:51;;;;;;;18.33;5.78;;;;;;;28.68;32.99;96769.31;5114233;28;20027;-35
2022/06/28 00:07:17;;;;;;;13.15;4.25;;;;;;;28.78;32.92;96762.00;5114539;28;20449;-34
2022/06/28 00:09:42;;;;;;;16.55;4.45;;;;;;;28.65;33.29;96771.16;5114088;28;20027;-34
2022/06/28 00:12:08;;;;;;;15.82;4.57;;;;;;;28.73;33.06;96760.06;5114296;28;20071;-34
2022/06/28 00:17:18;;;;;;;15.05;4.68;;;;;;;28.87;32.53;96758.75;5114450;28;20081;-34
2022/06/28 00:19:44;;;;;;;17.02;4.57;;;;;;;28.82;32.77;96757.59;5114228;28;20019;-34
2022/06/28 00:22:09;;;;;;;21.52;4.93;;;;;;;28.86;32.79;96760.81;5114101;28;20068;-34
2022/06/28 00:24:35;;;;;;;16.55;4.30;;;;;;;28.78;32.82;96757.19;5112888;28;20027;-35
2022/06/28 00:27:01;;;;;;;18.30;5.57;;;;;;;28.81;33.07;96769.28;5113973;28;20027;-34
2022/06/28 00:29:26;;;;;;;17.77;5.13;;;;;;;28.79;33.05;96767.06;5113870;28;20103;-35
2022/06/28 00:31:52;;;;;;;16.60;4.57;;;;;;;28.78;32.99;96767.56;5112693;28;20105;-35
2022/06/28 00:34:17;;;;;;;18.13;5.25;;;;;;;28.68;33.32;96756.13;5113854;28;20540;-34
2022/06/28 00:36:55;;;;;;;16.20;4.85;;;;;;;28.70;33.26;96761.88;5113784;28;20419;-34
2022/06/28 00:39:21;;;;;;;16.58;4.55;;;;;;;28.79;33.13;96760.72;5112193;28;20057;-34
2022/06/28 00:41:55;;;;;;;17.33;4.65;;;;;;;28.80;32.88;96759.44;5113946;28;20038;-34
2022/06/28 00:44:22;;;;;;;17.58;4.65;;;;;;;28.70;33.15;96749.97;5114226;28;20057;-34
2022/06/28 00:46:48;;;;;;;13.73;4.35;;;;;;;28.75;32.93;96752.66;5113646;28;20024;-34
2022/06/28 00:49:15;;;;;;;18.15;4.75;;;;;;;28.82;32.90;96760.38;5113721;28;20035;-34
2022/06/28 00:51:40;;;;;;;15.63;4.60;;;;;;;28.75;32.95;96752.66;5113731;28;20047;-34
2022/06/28 00:54:08;;;;;;;14.95;4.20;;;;;;;28.84;32.56;96748.69;5113527;28;20412;-34
2022/06/28 00:56:33;;;;;;;17.58;4.50;;;;;;;28.86;32.79;96738.47;5113848;28;20475;-34
2022/06/28 00:58:59;;;;;;;16.83;4.55;;;;;;;28.84;32.79;96738.25;5113500;28;20043;-34
2022/06/28 01:01:26;;;;;;;11.98;4.32;;;;;;;28.74;33.34;96736.44;5112535;28;20084;-35
2022/06/28 01:03:54;;;;;;;18.30;4.80;;;;;;;28.83;32.78;96736.00;5113569;28;20084;-34
2022/06/28 01:06:19;;;;;;;17.98;4.88;;;;;;;28.86;32.87;96740.50;5113471;28;20119;-34
2022/06/28 01:08:46;;;;;;;19.05;4.78;;;;;;;28.78;32.91;96743.22;5113656;28;20103;-34
2022/06/28 01:11:18;;;;;;;19.85;5.60;;;;;;;28.82;32.91;96734.50;5113539;28;20020;-34
2022/06/28 01:13:55;;;;;;;22.35;5.32;;;;;;;28.85;32.83;96750.19;5117538;28;20033;-34
2022/06/28 01:16:22;;;;;;;19.00;4.85;;;;;;;28.81;32.75;96752.53;5117501;28;20439;-34
2022/06/28 01:18:47;;;;;;;18.13;4.68;;;;;;;28.87;32.42;96747.59;5117440;28;20056;-34
2022/06/28 01:21:16;;;;;;;16.30;4.25;;;;;;;28.87;32.22;96758.75;5117391;28;20027;-34
2022/06/28 01:23:43;;;;;;;16.90;4.32;;;;;;;28.77;32.65;96752.88;5117798;28;20015;-34
2022/06/28 01:26:10;;;;;;;15.85;4.78;;;;;;;28.79;32.48;96757.94;5117133;28;20028;-34
2022/06/28 01:28:37;;;;;;;19.25;4.70;;;;;;;28.82;32.39;96768.75;5117347;28;20095;-34
2022/06/28 01:31:03;;;;;;;15.60;4.47;;;;;;;28.67;32.82;96767.81;5117196;28;20027;-34
2022/06/28 01:33:29;;;;;;;15.07;4.45;;;;;;;28.73;32.66;96776.81;5117351;27;20058;-34
2022/06/28 01:35:55;;;;;;;18.33;4.20;;;;;;;28.69;32.75;96782.72;5117132;28;20055;-34
2022/06/28 01:38:22;;;;;;;12.70;4.88;;;;;;;28.72;32.50;96776.06;5117421;28;20023;-34
2022/06/28 01:40:49;;;;;;;15.55;4.65;;;;;;;28.71;32.52;96785.72;5116936;28;20038;-34
2022/06/28 01:43:16;;;;;;;13.07;3.90;;;;;;;28.82;32.38;96788.28;5117120;28;20464;-34
2022/06/28 01:45:43;;;;;;;22.80;5.28;;;;;;;28.71;32.30;96796.88;5116731;28;20103;-34
2022/06/28 01:48:09;;;;;;;17.38;4.63;;;;;;;28.65;32.43;96801.84;5116903;28;20043;-34
2022/06/28 01:50:37;;;;;;;15.48;4.85;;;;;;;28.76;32.54;96807.19;5117252;28;20019;-34
2022/06/28 01:53:03;;;;;;;15.65;4.43;;;;;;;28.79;32.57;96808.94;5115499;28;20070;-34
2022/06/28 01:55:29;;;;;;;15.02;4.88;;;;;;;28.77;32.67;96819.09;5114609;27;20471;-35
2022/06/28 01:57:55;;;;;;;16.98;4.70;;;;;;;28.83;32.68;96812.13;5115623;27;20058;-34
2022/06/28 02:00:21;;;;;;;16.17;4.40;;;;;;;28.79;32.74;96803.34;5116733;28;20380;-34
2022/06/28 02:02:46;;;;;;;17.05;3.72;;;;;;;28.78;32.97;96801.84;5116629;28;20103;-35
2022/06/28 02:05:12;;;;;;;16.55;5.25;;;;;;;28.67;33.24;96801.31;5116644;28;20073;-34
2022/06/28 02:07:45;;;;;;;15.63;4.95;;;;;;;28.77;32.92;96797.53;5115469;28;20032;-34
2022/06/28 02:10:11;;;;;;;16.33;4.85;;;;;;;28.78;33.21;96796.25;5116578;28;20028;-34
2022/06/28 02:12:36;;;;;;;17.92;4.63;;;;;;;28.77;33.28;96791.94;5115137;28;20379;-34
2022/06/28 02:15:02;;;;;;;15.98;4.40;;;;;;;28.73;33.37;96787.97;5116299;28;20019;-34
2022/06/28 02:17:28;;;;;;;16.80;4.63;;;;;;;28.71;33.22;96784.97;5116327;27;20040;-34
2022/06/28 02:19:54;;;;;;;15.48;5.10;;;;;;;28.73;33.56;96777.56;5116464;28;20072;-34
2022/06/28 02:22:19;;;;;;;16.48;4.72;;;;;;;28.75;33.42;96777.03;5116354;27;20543;-34
2022/06/28 02:24:45;;;;;;;22.83;5.18;;;;;;;28.71;33.61;96780.13;5115052;28;20102;-34
2022/06/28 02:27:11;;;;;;;21.48;5.53;;;;;;;28.74;33.48;96779.06;5116130;27;20085;-34
2022/06/28 02:29:36;;;;;;;18.90;4.82;;;;;;;28.71;33.86;96785.72;5116268;28;20062;-34
2022/06/28 02:32:02;;;;;;;18.63;4.65;;;;;;;28.78;33.40;96771.16;5116068;28;20031;-34
2022/06/28 02:42:58;;;;;;;14.77;5.00;;;;;;;28.77;33.73;96793.97;5106588;28;20098;-34
2022/06/28 02:45:27;;;;;;;19.92;4.07;;;;;;;28.73;33.91;96788.72;5115671;28;20027;-34
2022/06/28 02:47:53;;;;;;;14.40;4.35;;;;;;;28.72;33.86;96797.63;5114598;28;20030;-34
2022/06/28 02:50:18;;;;;;;18.25;4.75;;;;;;;28.73;34.02;96785.94;5115757;28;20024;-34
2022/06/28 02:52:44;;;;;;;13.35;5.13;;;;;;;28.77;33.86;96766.81;5114437;28;20032;-34
2022/06/28 02:55:10;;;;;;;16.25;4.78;;;;;;;28.76;34.14;96759.72;5115955;27;20027;-34
2022/06/28 02:57:37;;;;;;;16.48;5.38;;;;;;;28.72;33.99;96753.72;5115243;27;20040;-34
2022/06/28 03:00:11;;;;;;;22.13;5.68;;;;;;;28.68;34.26;96758.91;5115522;28;20031;-34
2022/06/28 03:02:38;;;;;;;19.70;5.10;;;;;;;28.75;34.12;96771.44;5115460;28;20051;-34
2022/06/28 03:05:06;;;;;;;18.50;5.47;;;;;;;28.71;34.24;96757.81;5115384;28;20035;-34
2022/06/28 03:07:31;;;;;;;16.88;5.05;;;;;;;28.66;34.31;96760.72;5115383;28;20019;-34
2022/06/28 03:09:57;;;;;;;13.80;4.03;;;;;;;28.74;34.21;96767.91;5115863;28;20076;-34
2022/06/28 03:12:22;;;;;;;17.13;4.75;;;;;;;28.69;34.39;96768.75;5115218;28;20026;-34
2022/06/28 03:14:49;;;;;;;17.40;4.85;;;;;;;28.68;34.40;96767.28;5115420;28;20361;-34
2022/06/28 03:17:14;;;;;;;21.17;4.60;;;;;;;28.64;34.47;96758.47;5115219;28;20047;-34
2022/06/28 03:19:40;;;;;;;15.75;4.97;;;;;;;28.66;34.53;96761.47;5115658;28;20050;-34
2022/06/28 03:22:05;;;;;;;19.02;5.13;;;;;;;28.66;34.41;96764.28;5113730;28;20023;-34
2022/06/28 03:24:31;;;;;;;22.13;5.15;;;;;;;28.62;34.80;96783.38;5114881;27;20487;-34
2022/06/28 03:26:56;;;;;;;18.17;4.80;;;;;;;28.64;34.70;96774.47;5113667;28;20138;-34
2022/06/28 03:29:22;;;;;;;17.67;5.40;;;;;;;28.58;34.99;96761.38;5114878;28;20031;-34
2022/06/28 03:31:48;;;;;;;18.20;4.70;;;;;;;28.60;34.86;96741.31;5114830;28;20027;-34
2022/06/28 03:34:15;;;;;;;13.32;4.85;;;;;;;28.66;34.70;96741.94;5114798;28;20023;-35
2022/06/28 03:36:41;;;;;;;15.55;4.68;;;;;;;28.68;34.91;96761.69;5113365;28;20032;-34
2022/06/28 03:39:06;;;;;;;14.30;4.72;;;;;;;28.64;34.99;96769.63;5115026;28;20092;-34
2022/06/28 03:41:32;;;;;;;16.13;5.70;;;;;;;28.66;34.82;96755.91;5114696;28;20023;-34
2022/06/28 03:43:57;;;;;;;14.20;5.20;;;;;;;28.54;35.12;96749.06;5114934;28;20023;-35
2022/06/28 03:46:23;;;;;;;18.80;4.47;;;;;;;28.58;34.97;96769.75;5113238;28;20072;-34
2022/06/28 03:48:48;;;;;;;17.92;5.43;;;;;;;28.61;35.15;96781.88;5114676;27;20020;-34
2022/06/28 03:51:15;;;;;;;18.10;5.00;;;;;;;28.60;35.10;96758.03;5114523;28;20046;-34
2022/06/28 03:53:41;;;;;;;26.48;5.57;;;;;;;28.63;35.07;96751.41;5114574;28;20475;-34
2022/06/28 03:56:07;;;;;;;18.73;5.65;;;;;;;28.59;34.98;96762.13;5114441;28;20027;-35
2022/06/28 03:58:32;;;;;;;21.80;5.70;;;;;;;28.56;34.89;96777.19;5114357;28;20526;-34
2022/06/28 04:00:59;;;;;;;16.10;5.18;;;;;;;28.57;35.10;96742.38;5114426;28;20140;-34
2022/06/28 04:03:25;;;;;;;19.67;5.53;;;;;;;28.55;35.05;96747.78;5114933;28;20110;-34
2022/06/28 04:05:51;;;;;;;17.85;5.30;;;;;;;28.56;35.15;96779.97;5114218;28;20110;-35
2022/06/28 04:08:17;;;;;;;15.52;5.57;;;;;;;28.54;35.13;96760.22;5114398;28;20027;-34
2022/06/28 04:10:43;;;;;;;21.10;5.43;;;;;;;28.52;34.99;96774.69;5114065;28;20034;-34
2022/06/28 04:13:09;;;;;;;20.10;5.22;;;;;;;28.52;35.06;96773.94;5114313;28;20024;-34
2022/06/28 04:15:35;;;;;;;22.30;5.82;;;;;;;28.56;35.08;96772.31;5113985;28;20436;-34
2022/06/28 04:18:02;;;;;;;14.35;5.32;;;;;;;28.52;34.97;96782.31;5114169;28;20055;-34
2022/06/28 04:20:27;;;;;;;17.63;5.07;;;;;;;28.52;34.93;96760.75;5112740;28;20034;-34
2022/06/28 04:22:53;;;;;;;13.45;4.38;;;;;;;28.50;35.03;96777.28;5114305;28;20368;-34
2022/06/28 04:25:18;;;;;;;20.67;5.53;;;;;;;28.55;34.87;96767.31;5113813;28;20424;-34
2022/06/28 04:27:44;;;;;;;16.92;6.00;;;;;;;28.56;34.58;96768.81;5113883;28;20032;-34
2022/06/28 04:30:10;;;;;;;20.15;4.70;;;;;;;28.53;34.73;96772.66;5114083;28;20026;-34
2022/06/28 04:32:36;;;;;;;21.33;5.95;;;;;;;28.50;34.78;96779.31;5114069;28;20016;-34
2022/06/28 04:35:02;;;;;;;17.83;4.97;;;;;;;28.55;34.60;96778.47;5113965;28;20038;-34
2022/06/28 04:37:28;;;;;;;20.90;5.65;;;;;;;28.53;34.69;96779.00;5113860;28;20082;-34
2022/06/28 04:39:54;;;;;;;18.38;6.43;;;;;;;28.53;34.50;96784.56;5113033;28;20031;-34
2022/06/28 04:42:19;;;;;;;16.13;5.57;;;;;;;28.53;34.62;96769.88;5113883;28;20076;-34
2022/06/28 04:44:45;;;;;;;18.35;5.47;;;;;;;28.50;34.47;96774.50;5110825;28;20464;-36
2022/06/28 04:47:11;;;;;;;16.48;5.38;;;;;;;28.50;34.62;96759.78;5113174;28;20102;-34
2022/06/28 04:49:37;;;;;;;16.58;6.03;;;;;;;28.53;34.77;96761.50;5116378;28;20042;-34
2022/06/28 04:52:04;;;;;;;15.15;5.03;;;;;;;28.53;34.71;96767.09;5116392;28;20089;-34
2022/06/28 04:54:30;;;;;;;18.00;5.43;;;;;;;28.53;34.48;96767.09;5116124;28;20467;-34
2022/06/28 04:56:55;;;;;;;16.30;4.75;;;;;;;28.55;34.52;96758.94;5116114;28;20038;-35
2022/06/28 04:59:22;;;;;;;20.70;5.90;;;;;;;28.53;34.58;96764.28;5114656;28;20451;-34
2022/06/28 05:01:48;;;;;;;17.95;5.65;;;;;;;28.51;34.26;96756.47;5116130;28;20528;-34
2022/06/28 05:04:14;;;;;;;14.57;5.10;;;;;;;28.45;34.49;96749.47;5115993;27;20035;-34
2022/06/28 05:06:39;;;;;;;14.85;5.53;;;;;;;28.49;34.64;96739.50;5115986;28;20031;-34
2022/06/28 05:09:05;;;;;;;14.40;5.47;;;;;;;28.52;34.35;96741.22;5115683;28;20618;-34
2022/06/28 05:11:31;;;;;;;15.45;5.85;;;;;;;28.52;34.58;96746.06;5115993;27;20036;-34
2022/06/28 05:13:57;;;;;;;18.35;5.47;;;;;;;28.53;34.21;96741.97;5115906;28;20020;-34
2022/06/28 05:16:23;;;;;;;15.13;5.72;;;;;;;28.34;34.00;96741.34;5115940;27;20459;-34
2022/06/28 05:18:49;;;;;;;14.25;4.93;;;;;;;28.45;33.60;96735.53;5115825;28;20073;-34
2022/06/28 05:21:14;;;;;;;14.13;5.40;;;;;;;28.51;33.80;96731.34;5114380;28;20049;-34
2022/06/28 05:23:40;;;;;;;16.42;5.90;;;;;;;28.45;33.79;96736.28;5115837;28;20471;-34
2022/06/28 05:26:05;;;;;;;18.88;5.45;;;;;;;28.39;33.48;96721.72;5115808;28;20024;-34
2022/06/28 05:28:31;;;;;;;15.13;5.53;;;;;;;28.42;33.52;96728.25;5115742;28;20091;-34
2022/06/28 05:30:56;;;;;;;16.30;6.30;;;;;;;28.45;33.79;96724.38;5115300;28;20032;-34
2022/06/28 05:33:22;;;;;;;21.02;5.80;;;;;;;28.47;33.98;96721.81;5115588;28;20506;-35
2022/06/28 05:35:48;;;;;;;16.75;5.60;;;;;;;28.52;34.02;96730.06;5115499;28;20435;-35
2022/06/28 05:38:13;;;;;;;16.75;6.30;;;;;;;28.46;34.02;96728.66;5115393;28;20110;-34
2022/06/28 05:40:39;;;;;;;14.50;5.85;;;;;;;28.46;33.92;96721.03;5115457;28;20023;-35
2022/06/28 05:43:04;;;;;;;18.38;5.45;;;;;;;28.46;33.83;96711.94;5115177;28;20500;-34
2022/06/28 05:45:30;;;;;;;12.32;5.80;;;;;;;28.46;33.62;96709.88;5115410;28;20100;-34
2022/06/28 05:47:55;;;;;;;25.42;6.10;;;;;;;28.47;33.01;96711.38;5115392;28;20043;-35
2022/06/28 05:50:21;;;;;;;16.73;6.53;;;;;;;28.45;33.36;96710.44;5115663;28;20031;-34
2022/06/28 05:52:47;;;;;;;17.52;5.88;;;;;;;28.48;33.79;96709.34;5115059;28;20035;-34
2022/06/28 05:55:14;;;;;;;13.32;5.63;;;;;;;28.49;33.53;96719.22;5115107;28;20024;-34
2022/06/28 05:57:40;;;;;;;13.10;5.45;;;;;;;28.48;33.83;96723.31;5114476;28;20051;-35
2022/06/28 06:00:06;;;;;;;15.90;6.07;;;;;;;28.32;33.47;96721.59;5111889;28;20019;-35
2022/06/28 06:02:32;;;;;;;12.68;5.65;;;;;;;28.35;33.75;96729.66;5114824;28;20023;-34
2022/06/28 06:04:59;;;;;;;22.38;6.32;;;;;;;28.42;33.56;96722.69;5114959;28;20368;-34
2022/06/28 06:07:25;;;;;;;16.88;6.40;;;;;;;28.41;33.56;96719.16;5114669;28;20482;-35
2022/06/28 06:09:50;;;;;;;19.35;6.00;;;;;;;28.39;32.16;96712.59;5114815;28;20633;-34
2022/06/28 06:12:17;;;;;;;18.65;5.65;;;;;;;28.38;32.73;96706.25;5114884;28;20030;-33
2022/06/28 06:14:43;;;;;;;23.58;6.30;;;;;;;28.35;32.20;96709.38;5114781;28;20045;-34
2022/06/28 06:17:09;;;;;;;22.40;5.55;;;;;;;28.36;32.17;96716.47;5114806;28;20031;-34
2022/06/28 06:19:35;;;;;;;21.90;5.45;;;;;;;28.48;32.63;96720.50;5114204;27;20084;-34
2022/06/28 06:22:00;;;;;;;21.30;6.13;;;;;;;28.53;32.87;96716.88;5114670;28;20023;-34
2022/06/28 06:24:26;;;;;;;15.35;5.53;;;;;;;28.47;32.74;96716.22;5114504;28;20462;-34
2022/06/28 06:26:51;;;;;;;23.05;6.18;;;;;;;28.48;32.28;96723.31;5114552;28;20092;-34
2022/06/28 06:29:17;;;;;;;25.33;6.40;;;;;;;28.48;32.26;96728.88;5114461;28;20027;-34
2022/06/28 06:31:42;;;;;;;14.55;5.50;;;;;;;28.48;32.90;96728.88;5114158;28;20023;-34
2022/06/28 06:34:08;;;;;;;18.88;5.80;;;;;;;28.53;33.04;96725.22;5114285;28;20121;-34
2022/06/28 06:36:35;;;;;;;18.40;5.85;;;;;;;28.48;32.91;96728.88;5113951;28;20081;-35
2022/06/28 06:39:00;;;;;;;15.70;4.97;;;;;;;28.53;33.25;96728.78;5114502;28;20035;-34
2022/06/28 06:41:26;;;;;;;12.70;5.05;;;;;;;28.47;33.28;96732.97;5114353;28;20027;-34
2022/06/28 06:43:53;;;;;;;13.45;4.97;;;;;;;28.52;33.35;96732.09;5113880;28;20105;-34
2022/06/28 06:46:19;;;;;;;18.13;5.35;;;;;;;28.46;33.65;96729.41;5114154;28;20391;-34
2022/06/28 06:48:45;;;;;;;11.27;5.00;;;;;;;28.53;33.32;96733.59;5114074;28;20038;-34
2022/06/28 06:51:10;;;;;;;19.75;5.10;;;;;;;28.48;33.13;96731.66;5113978;28;20372;-34
2022/06/28 06:53:36;;;;;;;14.02;4.65;;;;;;;28.56;32.94;96724.16;5114139;28;20437;-34
2022/06/28 06:56:01;;;;;;;12.43;5.07;;;;;;;28.55;33.17;96722.66;5113610;28;20418;-34
2022/06/28 06:58:27;;;;;;;15.32;4.93;;;;;;;28.55;32.90;96717.81;5112169;28;20066;-34
2022/06/28 07:00:54;;;;;;;14.40;5.60;;;;;;;28.56;33.21;96724.88;5114044;28;20015;-34
2022/06/28 07:03:19;;;;;;;17.05;5.40;;;;;;;28.54;33.08;96726.75;5113740;28;20024;-34
2022/06/28 07:05:44;;;;;;;14.15;5.65;;;;;;;28.56;32.95;96726.94;5112365;28;20124;-34
2022/06/28 07:08:10;;;;;;;14.27;4.93;;;;;;;28.56;33.16;96724.16;5113481;28;20509;-34
2022/06/28 07:10:36;;;;;;;13.00;5.40;;;;;;;28.57;32.92;96731.97;5113251;28;20467;-34
2022/06/28 07:13:01;;;;;;;15.65;5.15;;;;;;;28.55;32.96;96731.78;5115239;28;20019;-34
2022/06/28 07:15:26;;;;;;;15.48;5.25;;;;;;;28.59;33.02;96732.19;5115194;28;20030;-34
2022/06/28 07:17:52;;;;;;;15.73;5.30;;;;;;;28.59;32.88;96720.28;5117477;27;20026;-34
2022/06/28 07:20:18;;;;;;;19.60;5.68;;;;;;;28.51;32.97;96714.63;5131225;27;20023;-34
2022/06/28 07:22:43;;;;;;;15.43;5.00;;;;;;;28.58;32.61;96715.97;5133779;27;20395;-34
2022/06/28 07:25:11;;;;;;;16.98;5.28;;;;;;;28.64;32.61;96725.00;5133786;27;20481;-35
2022/06/28 07:27:36;;;;;;;15.43;5.78;;;;;;;28.60;32.60;96725.31;5133720;27;20344;-35
2022/06/28 07:30:02;;;;;;;15.07;5.22;;;;;;;28.61;32.65;96717.69;5116399;27;20031;-34
2022/06/28 07:32:28;;;;;;;22.40;5.25;;;;;;;28.57;32.41;96709.66;5113366;28;20102;-34
2022/06/28 07:34:53;;;;;;;19.90;5.93;;;;;;;28.62;32.28;96704.50;5117353;27;20026;-34
2022/06/28 07:37:19;;;;;;;23.95;5.00;;;;;;;28.60;32.38;96714.16;5133620;27;20023;-34
2022/06/28 07:39:45;;;;;;;28.80;6.07;;;;;;;28.66;32.20;96707.72;5132316;27;20410;-35
2022/06/28 07:42:10;;;;;;;26.58;5.50;;;;;;;28.65;31.97;96714.56;5133292;27;20081;-34
2022/06/28 07:44:36;;;;;;;21.55;5.43;;;;;;;28.67;32.17;96709.97;5133437;27;20052;-34
2022/06/28 07:47:02;;;;;;;22.33;5.95;;;;;;;28.69;32.02;96709.41;5133434;27;20019;-34
2022/06/28 07:52:33;;;;;;;21.83;5.70;;;;;;;28.65;32.11;96704.16;5133397;27;20434;-34
2022/06/28 07:54:57;;;;;;;19.63;5.25;;;;;;;28.61;32.40;96717.69;5133611;27;20127;-34
2022/06/28 07:57:22;;;;;;;19.08;5.38;;;;;;;28.64;32.14;96691.50;5133006;27;20502;-34
2022/06/28 07:59:47;;;;;;;17.17;5.78;;;;;;;28.66;32.23;96677.00;5133495;27;20035;-34
2022/06/28 08:02:13;;;;;;;20.67;5.57;;;;;;;28.66;31.70;96685.38;5133298;27;20019;-34
2022/06/28 08:04:38;;;;;;;19.92;4.95;;;;;;;28.64;31.69;96674.75;5133066;27;20031;-34
2022/06/28 08:07:04;;;;;;;25.33;5.88;;;;;;;28.89;29.30;96664.81;5131164;27;20023;-35
2022/06/28 08:09:30;;;;;;;27.13;5.80;;;;;;;28.42;30.55;96652.94;5133004;27;20111;-35
2022/06/28 08:11:55;;;;;;;23.52;5.68;;;;;;;28.35;30.92;96648.00;5124756;27;20035;-36
2022/06/28 08:14:22;;;;;;;21.90;5.30;;;;;;;28.47;30.89;96654.84;5112443;28;20387;-35
2022/06/28 08:16:48;;;;;;;26.70;6.20;;;;;;;28.54;30.58;96654.94;5111018;28;20524;-35
2022/06/28 08:19:15;;;;;;;19.60;5.57;;;;;;;28.57;30.70;96667.78;5112174;28;20031;-35
2022/06/28 08:21:40;;;;;;;24.63;5.18;;;;;;;28.54;31.03;96673.72;5112543;28;20081;-35
2022/06/28 08:24:07;;;;;;;20.50;5.40;;;;;;;28.59;30.80;96670.03;5113134;28;20035;-35
2022/06/28 08:26:33;;;;;;;23.15;5.63;;;;;;;28.57;31.28;96667.78;5112425;28;20032;-36
2022/06/28 08:28:59;;;;;;;19.00;5.15;;;;;;;28.55;30.96;96650.13;5112072;28;20031;-35
2022/06/28 08:31:24;;;;;;;22.50;5.45;;;;;;;28.51;30.87;96644.09;5112365;28;20030;-35
2022/06/28 08:33:50;;;;;;;24.42;4.97;;;;;;;28.51;31.16;96635.75;5113731;28;20023;-35
2022/06/28 08:36:16;;;;;;;25.52;6.20;;;;;;;28.54;30.96;96627.03;5113738;28;20525;-35
2022/06/28 08:38:41;;;;;;;25.70;5.88;;;;;;;28.51;31.55;96616.22;5114033;28;20333;-35
2022/06/28 08:41:08;;;;;;;24.48;5.43;;;;;;;28.56;31.15;96618.84;5113881;28;20043;-35
2022/06/28 08:43:33;;;;;;;17.83;5.30;;;;;;;28.53;31.03;96608.06;5114080;28;20076;-34
2022/06/28 08:45:59;;;;;;;18.42;5.50;;;;;;;28.49;31.06;96613.22;5114095;28;20024;-35
2022/06/28 08:48:39;;;;;;;24.08;4.95;;;;;;;28.52;30.96;96614.91;5113759;28;20026;-35
2022/06/28 08:51:07;;;;;;;19.02;5.50;;;;;;;28.55;30.95;96627.78;5114108;28;20073;-35
2022/06/28 08:53:35;;;;;;;19.05;4.68;;;;;;;28.56;31.13;96648.81;5113981;28;20027;-35
2022/06/28 08:56:00;;;;;;;19.83;5.07;;;;;;;28.56;31.10;96665.56;5107881;28;20031;-35
2022/06/28 08:58:27;;;;;;;17.65;4.85;;;;;;;28.54;30.58;96668.16;5093023;28;20052;-35
2022/06/28 09:00:53;;;;;;;21.02;4.82;;;;;;;28.56;30.37;96662.78;5093236;28;20461;-35
2022/06/28 09:03:19;;;;;;;22.63;4.88;;;;;;;28.58;30.28;96654.59;5093581;28;20032;-35
2022/06/28 09:05:44;;;;;;;32.03;6.60;;;;;;;28.54;30.16;96657.72;5093285;28;20354;-35
2022/06/28 09:08:10;;;;;;;13.07;4.38;;;;;;;28.53;29.52;96656.22;5093231;28;20028;-35
2022/06/28 09:10:36;;;;;;;23.30;5.53;;;;;;;28.56;29.47;96651.63;5093340;28;20031;-35
2022/06/28 09:13:10;;;;;;;19.33;4.50;;;;;;;28.55;29.55;96644.53;5093130;28;20031;-35
2022/06/28 09:16:05;;;;;;;21.13;5.68;;;;;;;28.57;29.46;96644.72;5091869;28;20035;-35
2022/06/28 09:18:36;;;;;;;23.92;5.97;;;;;;;28.56;29.37;96651.63;5091943;28;20027;-34
2022/06/28 09:21:08;;;;;;;17.70;5.13;;;;;;;28.57;29.25;96658.66;5093238;28;20090;-35
2022/06/28 09:23:36;;;;;;;18.35;5.03;;;;;;;28.53;29.40;96667.41;5092149;28;20020;-34
2022/06/28 09:26:07;;;;;;;24.48;4.53;;;;;;;28.56;28.98;96662.78;5093267;28;20430;-35
2022/06/28 09:28:35;;;;;;;22.20;4.93;;;;;;;28.56;29.00;96663.50;5093039;28;20111;-35
2022/06/28 09:31:21;;;;;;;26.08;5.25;;;;;;;28.54;29.52;96660.53;5093112;28;20428;-35
2022/06/28 09:34:02;;;;;;;18.65;4.68;;;;;;;28.58;28.81;96655.34;5095689;28;20023;-35
2022/06/28 09:36:29;;;;;;;17.63;4.80;;;;;;;28.52;28.62;96663.09;5096982;28;20035;-35
2022/06/28 09:38:56;;;;;;;17.10;4.18;;;;;;;28.53;28.98;96652.69;5096713;28;20028;-35
2022/06/28 09:41:30;;;;;;;15.63;3.95;;;;;;;28.54;29.26;96666.09;5096805;28;20028;-35
2022/06/28 09:44:00;;;;;;;29.73;5.60;;;;;;;28.56;28.84;96665.56;5095703;28;20460;-35
2022/06/28 09:46:33;;;;;;;21.02;5.88;;;;;;;28.56;28.89;96660.72;5095250;28;20035;-35
2022/06/28 09:49:06;;;;;;;17.95;4.72;;;;;;;28.54;28.99;96659.78;5096496;28;20028;-35
2022/06/28 09:51:35;;;;;;;25.52;4.68;;;;;;;28.56;28.68;96673.94;5096612;28;20433;-35
2022/06/28 09:54:05;;;;;;;19.20;4.47;;;;;;;28.54;28.47;96660.53;5096397;28;20020;-35
2022/06/28 09:56:35;;;;;;;27.83;4.43;;;;;;;28.54;28.88;96665.34;5096651;28;20020;-35
2022/06/28 09:59:06;;;;;;;20.88;4.68;;;;;;;28.53;28.82;96666.66;5095174;28;20434;-35
2022/06/28 10:01:32;;;;;;;18.00;5.07;;;;;;;28.49;28.56;96663.44;5096834;28;20098;-35
2022/06/28 10:03:58;;;;;;;21.25;5.05;;;;;;;28.44;28.78;96661.50;5096327;28;20035;-34
2022/06/28 10:06:24;;;;;;;19.83;4.85;;;;;;;28.52;28.89;96665.13;5096175;28;20099;-35
2022/06/28 10:08:50;;;;;;;20.40;5.18;;;;;;;28.56;28.88;96690.69;5096405;28;20024;-35
2022/06/28 10:11:17;;;;;;;20.45;4.30;;;;;;;28.42;29.20;96686.41;5096039;28;20027;-35
2022/06/28 10:16:54;;;;;;;19.23;5.32;;;;;;;28.49;28.76;96697.66;5096176;28;20376;-35
2022/06/28 10:19:22;;;;;;;21.35;5.20;;;;;;;28.55;28.65;96697.53;5094833;28;20472;-35
2022/06/28 10:21:57;;;;;;;21.58;4.75;;;;;;;28.54;28.62;96698.84;5096504;28;20032;-35
2022/06/28 10:24:40;;;;;;;23.92;4.85;;;;;;;28.56;28.68;96685.09;5095720;28;20099;-35
2022/06/28 10:27:12;;;;;;;;;;;;;;;28.46;28.97;96687.56;5095142;28;20471;-35
2022/06/28 10:30:08;;;;;;;29.08;5.40;;;;;;;28.43;28.91;96688.66;5095899;28;19912;-35
2022/06/28 10:32:56;;;;;;;21.52;4.53;;;;;;;28.45;28.84;96697.22;5094484;28;20043;-35
2022/06/28 10:35:36;;;;;;;18.85;4.63;;;;;;;28.42;29.39;96689.22;5094615;28;20077;-35
2022/06/28 10:38:07;;;;;;;21.30;5.00;;;;;;;28.49;28.54;96680.16;5095778;28;20024;-35
2022/06/28 10:40:39;;;;;;;25.02;5.18;;;;;;;28.55;28.72;96683.59;5095952;28;20117;-35
2022/06/28 10:43:04;;;;;;;22.60;5.00;;;;;;;28.54;28.90;96687.69;5095914;28;20028;-35
2022/06/28 10:46:04;;;;;;;19.58;4.32;;;;;;;28.56;28.87;96688.63;5094475;28;20387;-35
2022/06/28 10:48:30;;;;;;;17.48;4.38;;;;;;;28.54;28.90;96687.69;5095657;28;20016;-35
2022/06/28 10:51:01;;;;;;;14.77;4.72;;;;;;;28.50;29.04;96679.63;5095528;28;20468;-35
2022/06/28 10:53:28;;;;;;;18.45;4.85;;;;;;;28.55;29.23;96683.59;5095403;28;20027;-36
2022/06/28 10:56:14;;;;;;;19.90;5.05;;;;;;;28.55;29.33;96694.75;5095218;28;20106;-36
2022/06/28 10:58:59;;;;;;;20.40;4.75;;;;;;;28.54;28.86;96719.13;5095389;28;20052;-35
2022/06/28 11:01:50;;;;;;;18.33;4.78;;;;;;;28.52;29.06;96757.22;5095065;28;20028;-35
2022/06/28 11:04:25;;;;;;;22.55;4.78;;;;;;;28.51;29.25;96755.72;5092217;28;20036;-35
2022/06/28 11:06:50;;;;;;;22.33;4.72;;;;;;;28.48;28.94;96749.16;5095205;28;20020;-35
2022/06/28 11:09:38;;;;;;;15.23;4.53;;;;;;;28.44;29.41;96745.94;5095237;28;20039;-35
2022/06/28 11:12:07;;;;;;;16.33;4.43;;;;;;;28.54;29.02;96765.78;5095235;28;20050;-35
2022/06/28 11:14:44;;;;;;;19.33;4.90;;;;;;;28.46;29.09;96801.19;5095030;28;20069;-35
2022/06/28 11:17:15;;;;;;;17.88;5.00;;;;;;;28.38;29.47;96800.34;5095213;28;20020;-35
2022/06/28 11:19:50;;;;;;;25.85;4.75;;;;;;;28.35;29.47;96759.59;5094913;28;20090;-35
2022/06/28 11:22:28;;;;;;;20.45;4.93;;;;;;;28.41;30.10;96737.91;5094878;28;20058;-35
2022/06/28 11:24:56;;;;;;;24.63;5.53;;;;;;;28.33;30.07;96706.38;5094776;28;20464;-35
2022/06/28 11:27:22;;;;;;;22.92;5.75;;;;;;;28.42;30.12;96720.66;5094577;28;20452;-35
2022/06/28 11:29:52;;;;;;;21.55;5.28;;;;;;;28.39;30.53;96720.97;5094671;28;20369;-35
2022/06/28 11:32:24;;;;;;;23.45;5.47;;;;;;;28.45;30.35;96730.72;5094843;28;20039;-35
2022/06/28 11:34:57;;;;;;;23.65;5.55;;;;;;;28.42;30.76;96698.31;5094882;28;20107;-35
2022/06/28 11:37:22;;;;;;;22.25;4.60;;;;;;;28.43;30.95;96699.09;5094665;28;20012;-35
2022/06/28 11:39:51;;;;;;;27.20;5.07;;;;;;;28.30;31.26;96662.84;5093386;28;20118;-35
2022/06/28 11:42:16;;;;;;;17.35;4.65;;;;;;;28.38;31.25;96730.63;5094238;28;20020;-35
2022/06/28 11:44:42;;;;;;;15.93;5.10;;;;;;;28.40;31.37;96733.63;5094840;28;20035;-36